Time;durP1;ratioP1;P1;durP2;ratioP2;P2;SDS_P1;SDS_P2;PMS_P1;PMS_P2;Temp;Humidity;BMP_temperature;BMP_pressure;BME280_temperature;BME280_humidity;BME280_pressure;Samples;Min_cycle;Max_cycle;Signal;HPM_P1;HPM_P2
2022/09/27 00:00:16;;;;;;;2.85;0.60;;;11.50;99.90;;;;;;5116539;27;36632;-58
2022/09/27 00:02:44;;;;;;;3.28;0.52;;;11.50;99.90;;;;;;5117434;27;38364;-58
2022/09/27 00:05:11;;;;;;;3.70;0.75;;;11.50;99.90;;;;;;5118485;27;37713;-58
2022/09/27 00:07:38;;;;;;;3.22;0.60;;;11.60;99.90;;;;;;5118045;27;37527;-58
2022/09/27 00:10:07;;;;;;;5.32;0.60;;;11.60;99.90;;;;;;5117448;27;36699;-58
2022/09/27 00:12:36;;;;;;;6.10;0.57;;;11.50;99.90;;;;;;5117481;27;38673;-58
2022/09/27 00:15:04;;;;;;;4.47;0.60;;;11.50;99.90;;;;;;5117284;27;38301;-58
2022/09/27 00:17:31;;;;;;;5.05;0.70;;;11.50;99.90;;;;;;5117262;27;37373;-59
2022/09/27 00:19:59;;;;;;;4.13;0.70;;;11.50;99.90;;;;;;5117541;27;36546;-58
2022/09/27 00:22:27;;;;;;;4.00;0.45;;;11.50;99.90;;;;;;5117635;27;38774;-58
2022/09/27 00:24:55;;;;;;;7.13;0.70;;;11.50;99.90;;;;;;5118163;27;36487;-58
2022/09/27 00:27:22;;;;;;;5.57;0.50;;;11.50;99.90;;;;;;5117335;27;38096;-58
2022/09/27 00:29:51;;;;;;;3.42;0.68;;;11.50;99.90;;;;;;5116685;27;36377;-58
2022/09/27 00:32:19;;;;;;;7.50;1.08;;;11.50;99.90;;;;;;5118016;27;37977;-58
2022/09/27 00:34:46;;;;;;;5.03;0.60;;;11.50;99.90;;;;;;5117499;27;36851;-58
2022/09/27 00:37:13;;;;;;;3.65;0.65;;;11.40;99.90;;;;;;5117019;27;40069;-58
2022/09/27 00:39:41;;;;;;;2.05;0.43;;;11.40;99.90;;;;;;5115573;27;39095;-58
2022/09/27 00:42:10;;;;;;;3.03;0.43;;;11.40;99.90;;;;;;5116665;27;36315;-58
2022/09/27 00:45:16;;;;;;;1.45;0.50;;;11.40;99.90;;;;;;5116680;27;39557;-59
2022/09/27 00:47:51;;;;;;;4.30;0.57;;;11.30;99.90;;;;;;5115496;27;37621;-58
2022/09/27 00:50:26;;;;;;;4.00;0.50;;;11.30;99.90;;;;;;5116550;27;36509;-58
2022/09/27 00:53:02;;;;;;;3.03;0.30;;;11.30;99.90;;;;;;5116312;27;36370;-58
2022/09/27 00:55:36;;;;;;;3.63;1.08;;;11.30;99.90;;;;;;5118629;27;21007;-58
2022/09/27 00:58:04;;;;;;;5.40;0.95;;;11.30;99.90;;;;;;5117095;27;35730;-58
2022/09/27 01:00:33;;;;;;;6.13;0.60;;;11.30;99.90;;;;;;5118227;27;36531;-58
2022/09/27 01:03:04;;;;;;;3.95;0.60;;;11.30;99.90;;;;;;5117248;27;40148;-58
2022/09/27 01:05:32;;;;;;;3.67;0.80;;;11.20;99.90;;;;;;5116785;27;36654;-58
2022/09/27 01:07:59;;;;;;;7.97;0.85;;;11.30;99.90;;;;;;5116704;27;38697;-58
2022/09/27 01:10:32;;;;;;;3.55;0.80;;;11.20;99.90;;;;;;5116901;27;36796;-58
2022/09/27 01:13:12;;;;;;;9.55;0.70;;;11.20;99.90;;;;;;5115094;27;40299;-58
2022/09/27 01:15:48;;;;;;;3.03;0.35;;;11.30;99.90;;;;;;5117258;27;37867;-58
2022/09/27 01:18:29;;;;;;;4.45;0.52;;;11.30;99.90;;;;;;5116402;27;36023;-58
2022/09/27 01:21:28;;;;;;;2.65;0.40;;;11.30;99.90;;;;;;5116711;27;37423;-58
2022/09/27 01:24:25;;;;;;;8.88;0.70;;;11.30;99.90;;;;;;5116131;27;38077;-58
2022/09/27 01:27:31;;;;;;;4.45;0.68;;;11.30;99.90;;;;;;5112397;27;37286;-58
2022/09/27 01:30:25;;;;;;;5.15;0.60;;;11.30;99.90;;;;;;5116718;27;36316;-58
2022/09/27 01:33:05;;;;;;;4.13;0.60;;;11.30;99.90;;;;;;5116113;27;36511;-58
2022/09/27 01:35:39;;;;;;;5.32;0.88;;;11.30;99.90;;;;;;5116700;27;37638;-58
2022/09/27 01:38:16;;;;;;;8.38;1.00;;;11.30;99.90;;;;;;5116339;27;35701;-58
2022/09/27 01:40:53;;;;;;;5.45;0.90;;;11.30;99.90;;;;;;5116778;27;37147;-58
2022/09/27 01:43:23;;;;;;;4.25;0.70;;;11.30;99.90;;;;;;5113951;27;36404;-58
2022/09/27 01:45:56;;;;;;;2.78;0.55;;;11.20;99.90;;;;;;5115321;27;37424;-58
2022/09/27 01:48:25;;;;;;;4.72;0.63;;;11.20;99.90;;;;;;5116770;27;37904;-58
2022/09/27 01:50:58;;;;;;;2.03;0.32;;;11.20;99.90;;;;;;5116881;27;37315;-58
2022/09/27 01:53:31;;;;;;;4.32;0.55;;;11.20;99.90;;;;;;5115182;27;36741;-58
2022/09/27 01:56:04;;;;;;;3.05;0.70;;;11.20;99.90;;;;;;5116277;27;37531;-58
2022/09/27 01:58:37;;;;;;;3.95;0.90;;;11.10;99.90;;;;;;5116052;27;37667;-58
2022/09/27 02:01:08;;;;;;;4.72;0.50;;;11.20;99.90;;;;;;5116502;27;38035;-58
2022/09/27 02:03:36;;;;;;;2.67;0.40;;;11.20;99.90;;;;;;5116144;27;36508;-58
2022/09/27 02:06:09;;;;;;;3.50;0.60;;;11.20;99.90;;;;;;5116195;27;38620;-58
2022/09/27 02:08:41;;;;;;;4.00;0.38;;;11.10;99.90;;;;;;5117460;27;38328;-58
2022/09/27 02:11:11;;;;;;;3.92;0.50;;;11.10;99.90;;;;;;5117111;27;37458;-58
2022/09/27 02:13:42;;;;;;;4.22;0.60;;;11.10;99.90;;;;;;5116762;27;37364;-58
2022/09/27 02:16:22;;;;;;;4.93;0.63;;;11.10;99.90;;;;;;5115636;27;37673;-58
2022/09/27 02:19:00;;;;;;;5.88;1.30;;;11.10;99.90;;;;;;5115980;27;38799;-58
2022/09/27 02:21:37;;;;;;;4.38;0.60;;;11.10;99.90;;;;;;5118701;27;37290;-58
2022/09/27 02:24:08;;;;;;;5.97;0.75;;;11.10;99.90;;;;;;5119991;27;37438;-58
2022/09/27 02:26:40;;;;;;;2.30;0.73;;;11.10;99.90;;;;;;5120394;27;37606;-58
2022/09/27 02:29:10;;;;;;;5.65;0.43;;;11.10;99.90;;;;;;5119189;27;38397;-58
2022/09/27 02:31:39;;;;;;;2.38;0.45;;;11.10;99.90;;;;;;5119842;27;37078;-58
2022/09/27 02:34:11;;;;;;;6.28;0.82;;;11.10;99.90;;;;;;5120408;27;36770;-58
2022/09/27 02:36:38;;;;;;;4.88;0.73;;;11.10;99.90;;;;;;5119365;27;37268;-58
2022/09/27 02:39:06;;;;;;;4.07;0.50;;;11.10;99.90;;;;;;5120233;27;37994;-58
2022/09/27 02:41:33;;;;;;;2.63;0.30;;;11.00;99.90;;;;;;5119600;27;37742;-58
2022/09/27 02:44:04;;;;;;;7.30;0.80;;;11.00;99.90;;;;;;5118613;27;35351;-58
2022/09/27 02:47:00;;;;;;;4.63;0.82;;;11.00;99.90;;;;;;5119578;27;37398;-58
2022/09/27 02:49:41;;;;;;;6.32;0.77;;;11.00;99.90;;;;;;5118382;27;40330;-58
2022/09/27 02:52:17;;;;;;;2.85;0.70;;;11.00;99.90;;;;;;5119572;27;37529;-58
2022/09/27 02:54:54;;;;;;;5.18;0.65;;;11.10;99.90;;;;;;5119474;27;36606;-58
2022/09/27 02:57:32;;;;;;;7.43;0.98;;;11.00;99.90;;;;;;5119888;27;37315;-58
2022/09/27 03:00:05;;;;;;;6.50;1.23;;;11.00;99.90;;;;;;5119981;27;37798;-60
2022/09/27 03:02:41;;;;;;;3.63;0.40;;;11.00;99.90;;;;;;5119254;27;38000;-58
2022/09/27 03:05:10;;;;;;;4.38;0.50;;;11.00;99.90;;;;;;5119550;27;37568;-58
2022/09/27 03:07:38;;;;;;;3.85;0.60;;;11.00;99.90;;;;;;5119434;27;37679;-58
2022/09/27 03:10:07;;;;;;;6.70;0.75;;;11.00;99.90;;;;;;5118780;27;37959;-58
2022/09/27 03:12:35;;;;;;;5.03;0.70;;;11.00;99.90;;;;;;5118136;27;37299;-58
2022/09/27 03:15:02;;;;;;;3.83;0.60;;;10.90;99.90;;;;;;5119208;27;36498;-58
2022/09/27 03:17:29;;;;;;;4.65;0.90;;;10.90;99.90;;;;;;5118092;27;39223;-58
2022/09/27 03:19:58;;;;;;;4.18;0.60;;;10.90;99.90;;;;;;5117084;27;37868;-58
2022/09/27 03:22:25;;;;;;;3.28;0.55;;;10.90;99.90;;;;;;5119350;27;37228;-58
2022/09/27 03:24:52;;;;;;;9.13;0.70;;;10.90;99.90;;;;;;5118329;27;35472;-58
2022/09/27 03:27:20;;;;;;;4.25;0.52;;;10.90;99.90;;;;;;5118490;27;37735;-57
2022/09/27 03:29:47;;;;;;;3.30;0.65;;;10.80;99.90;;;;;;5117892;27;38855;-58
2022/09/27 03:32:14;;;;;;;6.13;0.93;;;10.80;99.90;;;;;;5117943;27;37331;-59
2022/09/27 03:34:42;;;;;;;2.20;0.47;;;10.80;99.90;;;;;;5118425;27;38540;-59
2022/09/27 03:37:10;;;;;;;2.55;0.40;;;10.80;99.90;;;;;;5119321;27;37390;-58
2022/09/27 03:39:39;;;;;;;7.20;0.75;;;10.80;99.90;;;;;;5116554;27;37905;-59
2022/09/27 03:42:06;;;;;;;4.22;0.50;;;10.80;99.90;;;;;;5117884;27;37200;-59
2022/09/27 03:44:34;;;;;;;4.13;0.60;;;10.80;99.90;;;;;;5117330;27;37149;-58
2022/09/27 03:47:01;;;;;;;3.15;0.70;;;10.80;99.90;;;;;;5117156;27;38199;-58
2022/09/27 03:49:28;;;;;;;9.13;1.15;;;10.80;99.90;;;;;;5116945;27;37426;-59
2022/09/27 03:51:56;;;;;;;3.10;0.70;;;10.80;99.90;;;;;;5118657;27;37547;-58
2022/09/27 03:54:25;;;;;;;6.63;0.95;;;10.70;99.90;;;;;;5118145;27;36432;-59
2022/09/27 03:56:52;;;;;;;7.65;0.95;;;10.80;99.90;;;;;;5118422;27;38476;-58
2022/09/27 03:59:19;;;;;;;5.13;0.80;;;10.80;99.90;;;;;;5117638;27;38714;-58
2022/09/27 04:01:46;;;;;;;10.43;1.20;;;10.80;99.90;;;;;;5117459;27;38429;-59
2022/09/27 04:04:14;;;;;;;3.40;0.45;;;10.80;99.90;;;;;;5118099;27;38579;-59
2022/09/27 04:06:41;;;;;;;3.70;0.75;;;10.80;99.90;;;;;;5118270;27;36406;-58
2022/09/27 04:09:08;;;;;;;4.15;0.60;;;10.80;99.90;;;;;;5118067;27;37912;-59
2022/09/27 04:11:37;;;;;;;4.18;0.88;;;10.80;99.90;;;;;;5117960;27;37394;-59
2022/09/27 04:14:04;;;;;;;3.35;0.77;;;10.70;99.90;;;;;;5117485;27;37851;-59
2022/09/27 04:16:32;;;;;;;6.45;0.90;;;10.70;99.90;;;;;;5116428;27;37631;-58
2022/09/27 04:19:00;;;;;;;8.82;0.80;;;10.80;99.90;;;;;;5118263;27;37906;-59
2022/09/27 04:21:27;;;;;;;6.75;0.70;;;10.80;99.90;;;;;;5117872;27;37313;-59
2022/09/27 04:23:55;;;;;;;6.07;0.80;;;10.80;99.90;;;;;;5118528;27;35361;-59
2022/09/27 04:26:23;;;;;;;4.22;0.73;;;10.80;99.90;;;;;;5118817;27;39209;-59
2022/09/27 04:28:51;;;;;;;4.30;0.70;;;10.80;99.90;;;;;;5117425;27;38342;-58
2022/09/27 04:31:19;;;;;;;3.22;0.50;;;10.80;99.90;;;;;;5117784;27;38756;-59
2022/09/27 04:33:46;;;;;;;5.05;0.77;;;10.80;99.90;;;;;;5118395;27;36739;-59
2022/09/27 04:36:26;;;;;;;3.85;0.60;;;10.80;99.90;;;;;;5117390;27;38334;-59
2022/09/27 04:38:53;;;;;;;3.97;0.63;;;10.70;99.90;;;;;;5116510;27;38237;-58
2022/09/27 04:41:22;;;;;;;4.55;0.50;;;10.80;99.90;;;;;;5117480;27;37450;-59
2022/09/27 04:43:51;;;;;;;3.10;0.60;;;10.80;99.90;;;;;;5117220;27;36424;-58
2022/09/27 04:46:20;;;;;;;2.67;0.55;;;10.80;99.90;;;;;;5118154;27;37413;-59
2022/09/27 04:48:47;;;;;;;5.20;0.70;;;10.80;99.90;;;;;;5116952;27;37686;-58
2022/09/27 04:51:16;;;;;;;5.18;0.50;;;10.80;99.90;;;;;;5116432;27;38210;-58
2022/09/27 04:53:43;;;;;;;4.50;1.13;;;10.80;99.90;;;;;;5117839;27;37061;-59
2022/09/27 04:56:11;;;;;;;3.45;0.50;;;10.80;99.90;;;;;;5117967;27;36265;-59
2022/09/27 04:58:39;;;;;;;5.65;1.00;;;10.80;99.90;;;;;;5115685;27;39809;-59
2022/09/27 05:01:08;;;;;;;3.83;0.60;;;10.80;99.90;;;;;;5117027;27;38138;-58
2022/09/27 05:03:36;;;;;;;4.35;0.60;;;10.80;99.90;;;;;;5118131;27;36418;-58
2022/09/27 05:06:04;;;;;;;4.57;0.70;;;10.70;99.90;;;;;;5117353;27;38205;-58
2022/09/27 05:08:31;;;;;;;4.47;0.65;;;10.80;99.90;;;;;;5117656;27;37749;-59
2022/09/27 05:10:58;;;;;;;8.27;0.73;;;10.80;99.90;;;;;;5117024;27;38161;-58
2022/09/27 05:13:26;;;;;;;2.00;0.50;;;10.70;99.90;;;;;;5117209;27;36257;-58
2022/09/27 05:15:54;;;;;;;5.82;0.60;;;10.70;99.90;;;;;;5116586;27;37793;-58
2022/09/27 05:18:22;;;;;;;3.78;0.60;;;10.70;99.90;;;;;;5115671;27;36390;-58
2022/09/27 05:20:49;;;;;;;5.95;0.80;;;10.70;99.90;;;;;;5116135;27;36302;-58
2022/09/27 05:23:17;;;;;;;5.63;0.70;;;10.70;99.90;;;;;;5116778;27;37053;-59
2022/09/27 05:25:44;;;;;;;5.82;0.68;;;10.70;99.90;;;;;;5117178;27;38745;-58
2022/09/27 05:28:12;;;;;;;6.20;1.00;;;10.70;99.90;;;;;;5117297;27;36465;-58
2022/09/27 05:30:39;;;;;;;4.30;0.93;;;10.80;99.90;;;;;;5116696;27;38695;-58
2022/09/27 05:33:06;;;;;;;2.88;0.73;;;10.70;99.90;;;;;;5116323;27;37266;-59
2022/09/27 05:35:35;;;;;;;2.10;0.57;;;10.70;99.90;;;;;;5117442;27;37491;-59
2022/09/27 05:38:03;;;;;;;3.53;0.60;;;10.70;99.90;;;;;;5115030;27;39374;-59
2022/09/27 05:40:30;;;;;;;5.18;1.10;;;10.70;99.90;;;;;;5117251;27;37857;-58
2022/09/27 05:42:57;;;;;;;3.50;0.60;;;10.70;99.90;;;;;;5116990;27;36468;-59
2022/09/27 05:45:25;;;;;;;4.28;0.70;;;10.70;99.90;;;;;;5115945;27;37368;-58
2022/09/27 05:47:54;;;;;;;5.88;0.95;;;10.70;99.90;;;;;;5116546;27;39396;-59
2022/09/27 05:50:22;;;;;;;7.75;1.45;;;10.70;99.90;;;;;;5116481;27;39081;-59
2022/09/27 05:52:51;;;;;;;4.50;0.90;;;10.80;99.90;;;;;;5116465;27;35362;-57
2022/09/27 05:55:18;;;;;;;3.05;0.60;;;10.70;99.90;;;;;;5122273;27;37599;-58
2022/09/27 05:57:55;;;;;;;2.38;0.50;;;10.80;99.90;;;;;;5123789;27;39069;-59
2022/09/27 06:00:22;;;;;;;5.70;0.80;;;10.80;99.90;;;;;;5123873;27;37062;-59
2022/09/27 06:02:59;;;;;;;4.57;0.80;;;10.80;99.90;;;;;;5123754;27;38468;-58
2022/09/27 06:05:28;;;;;;;4.68;0.60;;;10.80;99.90;;;;;;5123045;27;38620;-58
2022/09/27 06:08:01;;;;;;;6.18;0.80;;;10.80;99.90;;;;;;5123430;27;38935;-59
2022/09/27 06:10:30;;;;;;;15.47;1.13;;;10.80;99.90;;;;;;5124143;27;36203;-59
2022/09/27 06:13:01;;;;;;;4.93;1.25;;;10.80;99.90;;;;;;5123720;27;35196;-59
2022/09/27 06:15:28;;;;;;;7.78;0.90;;;10.80;99.90;;;;;;5123476;27;36366;-59
2022/09/27 06:17:56;;;;;;;2.75;0.60;;;10.80;99.90;;;;;;5121991;27;39100;-58
2022/09/27 06:20:23;;;;;;;6.47;1.00;;;10.80;99.90;;;;;;5123552;27;38728;-59
2022/09/27 06:22:52;;;;;;;7.63;0.80;;;10.80;99.90;;;;;;5122787;27;36477;-59
2022/09/27 06:25:21;;;;;;;3.42;0.80;;;10.80;99.90;;;;;;5121580;27;38168;-59
2022/09/27 06:27:48;;;;;;;5.20;0.73;;;10.80;99.90;;;;;;5121119;27;39185;-59
2022/09/27 06:30:16;;;;;;;2.80;0.60;;;10.80;99.90;;;;;;5121182;27;37898;-59
2022/09/27 06:32:43;;;;;;;3.30;0.85;;;10.80;99.90;;;;;;5120976;27;36413;-59
2022/09/27 06:35:10;;;;;;;2.92;0.55;;;10.70;99.90;;;;;;5121587;27;37448;-59
2022/09/27 06:37:38;;;;;;;2.03;0.52;;;10.80;99.90;;;;;;5121458;27;38449;-59
2022/09/27 06:40:08;;;;;;;4.45;0.50;;;10.80;99.90;;;;;;5121610;27;38279;-59
2022/09/27 06:42:37;;;;;;;3.78;0.70;;;10.80;99.90;;;;;;5121058;27;36431;-59
2022/09/27 06:45:05;;;;;;;6.22;0.70;;;10.80;99.90;;;;;;5121291;27;37220;-59
2022/09/27 06:47:35;;;;;;;4.28;0.77;;;10.80;99.90;;;;;;5120672;27;37564;-59
2022/09/27 06:50:04;;;;;;;7.63;1.00;;;10.80;99.90;;;;;;5121298;27;37449;-59
2022/09/27 06:52:31;;;;;;;2.92;0.60;;;10.80;99.90;;;;;;5121089;27;37327;-59
2022/09/27 06:54:59;;;;;;;1.80;0.45;;;10.90;99.90;;;;;;5121688;27;37580;-59
2022/09/27 07:00:26;;;;;;;2.53;0.70;;;10.80;99.90;;;;;;5122058;27;38376;-59
2022/09/27 07:02:57;;;;;;;9.80;1.27;;;10.90;99.90;;;;;;5120683;27;35384;-59
2022/09/27 07:05:24;;;;;;;3.90;0.70;;;10.90;99.90;;;;;;5120845;27;37553;-59
2022/09/27 07:07:56;;;;;;;5.28;1.10;;;10.90;99.90;;;;;;5116296;27;39443;-58
2022/09/27 07:10:25;;;;;;;3.10;0.65;;;10.90;99.90;;;;;;5117826;27;37417;-59
2022/09/27 07:12:53;;;;;;;3.10;0.70;;;10.90;99.90;;;;;;5116815;27;36784;-59
2022/09/27 07:15:22;;;;;;;6.18;1.00;;;10.90;99.90;;;;;;5117497;27;37601;-59
2022/09/27 07:17:56;;;;;;;2.17;0.55;;;10.90;99.90;;;;;;5117196;27;38925;-59
2022/09/27 07:20:24;;;;;;;5.38;1.27;;;11.00;99.90;;;;;;5117673;27;37318;-59
2022/09/27 07:22:52;;;;;;;1.83;0.77;;;11.00;99.90;;;;;;5117826;27;37474;-59
2022/09/27 07:25:19;;;;;;;7.65;1.20;;;11.00;99.90;;;;;;5117944;27;38244;-59
2022/09/27 07:27:47;;;;;;;5.93;0.70;;;11.00;99.90;;;;;;5117351;27;38694;-59
2022/09/27 07:30:15;;;;;;;3.28;0.85;;;11.10;99.90;;;;;;5117354;27;37419;-59
2022/09/27 07:32:43;;;;;;;1.98;0.70;;;11.10;99.90;;;;;;5117343;27;37083;-58
2022/09/27 07:35:13;;;;;;;2.00;0.60;;;11.10;99.90;;;;;;5117198;27;39184;-59
2022/09/27 07:37:42;;;;;;;4.25;1.27;;;11.20;99.90;;;;;;5118183;27;41146;-59
2022/09/27 07:40:10;;;;;;;8.32;0.90;;;11.10;99.90;;;;;;5116424;27;38339;-59
2022/09/27 07:42:38;;;;;;;3.22;0.63;;;11.10;99.90;;;;;;5116862;27;37381;-58
2022/09/27 07:45:06;;;;;;;3.78;0.77;;;11.10;99.90;;;;;;5117174;27;38790;-58
2022/09/27 07:47:35;;;;;;;1.60;0.50;;;11.10;99.90;;;;;;5116704;27;37517;-59
2022/09/27 07:50:04;;;;;;;3.47;0.60;;;11.10;99.90;;;;;;5116977;27;37282;-59
2022/09/27 07:52:38;;;;;;;3.90;0.70;;;11.10;99.90;;;;;;5117347;27;36870;-59
2022/09/27 07:55:07;;;;;;;4.88;0.68;;;11.10;99.90;;;;;;5117613;27;37410;-59
2022/09/27 07:57:34;;;;;;;2.45;0.52;;;11.10;99.90;;;;;;5116609;27;37389;-59
2022/09/27 08:00:02;;;;;;;3.28;0.60;;;11.10;99.90;;;;;;5117217;27;36156;-59
2022/09/27 08:02:31;;;;;;;3.85;0.70;;;11.10;99.90;;;;;;5116842;27;35326;-58
2022/09/27 08:04:59;;;;;;;1.58;0.40;;;11.10;99.90;;;;;;5116736;27;37641;-59
2022/09/27 08:07:28;;;;;;;4.82;0.50;;;11.10;99.90;;;;;;5116515;27;37980;-59
2022/09/27 08:09:56;;;;;;;2.00;0.40;;;11.10;99.90;;;;;;5116435;27;38075;-59
2022/09/27 08:12:23;;;;;;;5.78;0.65;;;11.10;99.90;;;;;;5116856;27;36479;-59
2022/09/27 08:14:51;;;;;;;4.25;0.50;;;11.10;99.90;;;;;;5116378;27;38666;-59
2022/09/27 08:17:19;;;;;;;2.78;0.40;;;11.20;99.90;;;;;;5115863;27;37725;-58
2022/09/27 08:19:48;;;;;;;6.43;1.00;;;11.20;99.90;;;;;;5115653;27;37192;-59
2022/09/27 08:22:16;;;;;;;3.33;0.57;;;11.20;99.90;;;;;;5116059;27;36346;-58
2022/09/27 08:24:45;;;;;;;7.28;1.02;;;11.40;99.90;;;;;;5115788;27;37382;-59
2022/09/27 08:27:12;;;;;;;6.47;0.68;;;11.40;99.90;;;;;;5115560;27;38757;-58
2022/09/27 08:29:40;;;;;;;5.90;0.75;;;11.40;99.90;;;;;;5116175;27;35971;-59
2022/09/27 08:32:08;;;;;;;3.38;0.50;;;11.50;99.90;;;;;;5115928;27;36460;-59
2022/09/27 08:34:35;;;;;;;3.70;0.82;;;11.60;99.90;;;;;;5115928;27;38305;-59
2022/09/27 08:37:03;;;;;;;5.68;0.70;;;11.60;99.90;;;;;;5116299;27;38738;-59
2022/09/27 08:39:30;;;;;;;5.65;0.65;;;11.60;99.90;;;;;;5116462;27;36186;-59
2022/09/27 08:42:06;;;;;;;4.68;0.80;;;11.60;99.90;;;;;;5115986;27;37088;-59
2022/09/27 08:44:42;;;;;;;3.53;0.60;;;11.60;99.90;;;;;;5115676;27;36320;-59
2022/09/27 08:47:14;;;;;;;3.85;0.60;;;11.60;99.90;;;;;;5115727;27;38597;-59
2022/09/27 08:49:46;;;;;;;5.25;0.80;;;11.60;99.90;;;;;;5115445;27;38420;-59
2022/09/27 08:52:19;;;;;;;5.18;1.13;;;11.60;99.90;;;;;;5115760;27;36694;-59
2022/09/27 08:54:48;;;;;;;4.22;0.55;;;11.60;99.90;;;;;;5116445;27;38574;-59
2022/09/27 08:57:16;;;;;;;2.70;0.63;;;11.60;99.90;;;;;;5114755;27;38548;-59
2022/09/27 08:59:50;;;;;;;2.60;0.50;;;11.70;99.90;;;;;;5116250;27;38486;-58
2022/09/27 09:02:18;;;;;;;;;;;11.70;99.90;;;;;;5116281;27;37691;-59
2022/09/27 09:04:49;;;;;;;3.20;0.60;;;11.70;99.90;;;;;;5115931;27;37456;-59
2022/09/27 09:07:36;;;;;;;4.45;0.70;;;11.80;99.90;;;;;;5115650;27;37733;-59
2022/09/27 09:12:45;;;;;;;2.55;0.63;;;11.80;99.90;;;;;;5115633;27;37393;-59
2022/09/27 09:13:16;;;;;;;1.33;0.57;;;11.90;99.90;;;;;;5115438;27;35707;-59
2022/09/27 09:15:55;;;;;;;7.03;0.60;;;11.90;99.90;;;;;;5115764;27;37283;-59
2022/09/27 09:18:34;;;;;;;6.00;0.75;;;11.90;99.90;;;;;;5115133;27;37613;-59
2022/09/27 09:21:10;;;;;;;4.63;0.70;;;12.00;99.90;;;;;;5114512;27;36181;-58
2022/09/27 09:24:04;;;;;;;1.15;0.30;;;12.10;99.90;;;;;;5115383;27;36642;-59
2022/09/27 09:26:38;;;;;;;1.17;0.40;;;12.10;99.90;;;;;;5115708;27;37808;-58
2022/09/27 09:29:27;;;;;;;0.93;0.13;;;12.10;99.90;;;;;;5114481;27;37991;-59
2022/09/27 09:32:01;;;;;;;0.82;0.32;;;12.00;99.90;;;;;;5114948;27;38695;-59
2022/09/27 09:34:33;;;;;;;1.35;0.30;;;11.80;99.90;;;;;;5115289;27;36528;-59
2022/09/27 09:37:05;;;;;;;0.20;0.10;;;11.70;99.90;;;;;;5115586;27;39606;-59
2022/09/27 09:39:38;;;;;;;0.43;0.20;;;11.60;99.90;;;;;;5115329;27;37627;-59
2022/09/27 09:42:09;;;;;;;;;;;11.60;99.90;;;;;;5116291;27;37747;-59
2022/09/27 09:44:48;;;;;;;0.95;0.50;;;11.60;99.90;;;;;;5115216;27;36660;-59
2022/09/27 09:47:26;;;;;;;2.70;0.60;;;11.60;99.90;;;;;;5114564;27;37947;-59
2022/09/27 09:49:58;;;;;;;1.35;0.38;;;11.60;99.90;;;;;;5114769;27;37626;-58
2022/09/27 09:52:32;;;;;;;3.83;0.55;;;11.50;99.90;;;;;;5115388;27;38839;-59
2022/09/27 09:55:07;;;;;;;1.75;0.20;;;11.50;99.90;;;;;;5115043;27;36824;-59
2022/09/27 09:57:43;;;;;;;3.70;0.30;;;11.50;99.90;;;;;;5113958;27;38596;-58
2022/09/27 10:00:15;;;;;;;1.20;0.30;;;11.50;99.90;;;;;;5115617;27;37516;-58
2022/09/27 10:02:44;;;;;;;1.25;0.43;;;11.60;99.90;;;;;;5114529;27;37483;-59
2022/09/27 10:05:16;;;;;;;0.40;0.17;;;11.50;99.90;;;;;;5114948;27;36609;-59
2022/09/27 10:07:44;;;;;;;1.02;0.32;;;11.50;99.90;;;;;;5114480;27;37626;-59
2022/09/27 10:10:15;;;;;;;1.77;0.28;;;11.60;99.90;;;;;;5114206;27;37713;-59
2022/09/27 10:12:42;;;;;;;4.05;0.30;;;11.60;99.90;;;;;;5114112;27;37471;-58
2022/09/27 10:15:16;;;;;;;1.90;0.32;;;11.60;99.90;;;;;;5115574;27;36346;-59
2022/09/27 10:17:48;;;;;;;1.55;0.25;;;11.60;99.90;;;;;;5113902;27;38275;-58
2022/09/27 10:20:30;;;;;;;1.35;0.30;;;11.60;99.90;;;;;;5114131;27;38261;-59
2022/09/27 10:23:04;;;;;;;0.45;0.05;;;11.70;99.90;;;;;;5114200;27;38227;-59
2022/09/27 10:25:48;;;;;;;;;;;11.80;99.90;;;;;;5115262;27;36442;-58
2022/09/27 10:28:31;;;;;;;1.55;0.35;;;11.80;99.90;;;;;;5114725;27;38236;-59
2022/09/27 10:31:02;;;;;;;3.47;0.50;;;11.90;99.90;;;;;;5114292;27;37863;-59
2022/09/27 10:33:31;;;;;;;0.68;0.20;;;11.90;99.90;;;;;;5114540;27;36432;-59
2022/09/27 10:36:00;;;;;;;2.10;0.38;;;12.00;99.90;;;;;;5114753;27;35422;-59
2022/09/27 10:38:30;;;;;;;1.75;0.35;;;12.00;99.90;;;;;;5114261;27;37349;-59
2022/09/27 10:41:15;;;;;;;1.88;0.20;;;12.00;99.90;;;;;;5115041;27;38660;-58
2022/09/27 10:43:42;;;;;;;1.25;0.15;;;11.90;99.90;;;;;;5118255;27;37280;-59
2022/09/27 10:46:18;;;;;;;0.50;0.10;;;11.90;99.90;;;;;;5117291;27;36367;-59
2022/09/27 10:48:45;;;;;;;2.35;0.30;;;11.80;99.90;;;;;;5117310;27;37876;-59
2022/09/27 10:51:29;;;;;;;1.30;0.20;;;11.80;99.90;;;;;;5117321;27;40549;-59
2022/09/27 10:53:59;;;;;;;0.85;0.20;;;11.70;99.90;;;;;;5116262;27;36327;-59
2022/09/27 10:56:30;;;;;;;2.60;0.30;;;11.60;99.90;;;;;;5117895;27;36420;-59
2022/09/27 10:58:58;;;;;;;2.63;0.20;;;11.50;99.90;;;;;;5117844;27;36310;-59
2022/09/27 11:01:38;;;;;;;3.10;0.35;;;11.40;99.90;;;;;;5116549;27;38471;-59
2022/09/27 11:04:06;;;;;;;1.45;0.00;;;11.30;99.90;;;;;;5116464;27;37745;-59
2022/09/27 11:06:37;;;;;;;1.42;0.20;;;11.30;99.90;;;;;;5116113;27;37259;-59
2022/09/27 11:09:18;;;;;;;2.03;0.30;;;11.30;99.90;;;;;;5116731;27;37802;-59
2022/09/27 11:11:46;;;;;;;3.00;0.57;;;11.20;99.90;;;;;;5116656;27;38033;-59
2022/09/27 11:14:20;;;;;;;3.03;0.40;;;11.20;99.90;;;;;;5116704;27;38081;-59
2022/09/27 11:17:09;;;;;;;2.78;0.45;;;11.20;99.90;;;;;;5116250;27;36753;-59
2022/09/27 11:19:52;;;;;;;0.88;0.30;;;11.20;99.90;;;;;;5116752;27;36508;-59
2022/09/27 11:22:48;;;;;;;2.80;0.38;;;11.20;99.90;;;;;;5116652;27;40398;-59
2022/09/27 11:25:29;;;;;;;1.40;0.15;;;11.20;99.90;;;;;;5116132;27;37975;-59
2022/09/27 11:28:04;;;;;;;2.75;0.40;;;11.30;99.90;;;;;;5116006;27;36423;-59
2022/09/27 11:30:41;;;;;;;2.42;0.35;;;11.40;99.90;;;;;;5115851;27;36562;-59
2022/09/27 11:33:30;;;;;;;3.20;0.95;;;11.60;99.90;;;;;;5116152;27;37510;-59
2022/09/27 11:36:04;;;;;;;3.10;0.52;;;11.90;99.90;;;;;;5115942;27;37962;-59
2022/09/27 11:38:38;;;;;;;2.40;0.32;;;12.00;99.90;;;;;;5116723;27;37744;-59
2022/09/27 11:41:11;;;;;;;;;;;12.20;99.90;;;;;;5117330;27;38036;-59
2022/09/27 11:44:04;;;;;;;3.00;0.50;;;12.40;99.90;;;;;;5115851;27;37868;-59
2022/09/27 11:46:34;;;;;;;1.75;0.35;;;12.40;99.90;;;;;;5115359;27;36189;-59
2022/09/27 11:49:45;;;;;;;3.38;0.50;;;12.50;99.90;;;;;;5115477;27;37231;-59
2022/09/27 11:52:30;;;;;;;4.97;0.50;;;12.60;99.90;;;;;;5115760;27;37418;-59
2022/09/27 11:55:19;;;;;;;1.02;0.38;;;12.80;99.90;;;;;;5116495;27;37811;-59
2022/09/27 11:57:56;;;;;;;3.47;0.30;;;12.80;99.90;;;;;;5115819;27;38678;-59
2022/09/27 12:00:24;;;;;;;13.55;0.65;;;12.70;99.90;;;;;;5116279;27;36813;-59
2022/09/27 12:03:21;;;;;;;2.08;0.40;;;12.60;99.90;;;;;;5115638;27;37486;-59
2022/09/27 12:06:01;;;;;;;3.33;0.75;;;12.40;99.90;;;;;;5115844;27;37567;-59
2022/09/27 12:08:44;;;;;;;1.98;0.47;;;12.30;99.90;;;;;;5115985;27;37837;-59
2022/09/27 12:11:20;;;;;;;4.30;0.50;;;12.20;99.90;;;;;;5115768;27;37436;-59
2022/09/27 12:13:52;;;;;;;6.13;0.40;;;12.20;99.90;;;;;;5116277;27;37365;-59
2022/09/27 12:16:22;;;;;;;2.92;0.63;;;12.20;99.90;;;;;;5115095;27;37715;-59
2022/09/27 12:18:52;;;;;;;10.82;0.88;;;12.20;99.90;;;;;;5115387;27;37990;-59
2022/09/27 12:21:21;;;;;;;5.43;0.60;;;12.20;99.90;;;;;;5115808;27;35334;-59
2022/09/27 12:23:51;;;;;;;3.47;0.60;;;12.20;99.90;;;;;;5115541;27;37719;-59
2022/09/27 12:26:23;;;;;;;6.88;0.95;;;12.20;99.90;;;;;;5114950;27;39791;-59
2022/09/27 12:28:54;;;;;;;2.97;0.73;;;12.30;99.90;;;;;;5115021;27;36083;-59
2022/09/27 12:31:27;;;;;;;2.38;0.40;;;12.30;99.90;;;;;;5114764;27;37080;-59
2022/09/27 12:34:08;;;;;;;3.83;0.50;;;12.30;99.90;;;;;;5115138;27;37325;-59
2022/09/27 12:36:43;;;;;;;3.65;0.47;;;12.30;99.90;;;;;;5115076;27;37815;-59
2022/09/27 12:39:18;;;;;;;1.27;0.45;;;12.40;99.90;;;;;;5115267;27;37947;-59
2022/09/27 12:41:51;;;;;;;1.75;0.30;;;12.30;99.90;;;;;;5114656;27;36311;-59
2022/09/27 12:44:18;;;;;;;3.13;0.70;;;12.20;99.90;;;;;;5114585;27;36294;-59
2022/09/27 12:46:56;;;;;;;2.40;0.32;;;12.20;99.90;;;;;;5115264;27;38914;-59
2022/09/27 12:49:32;;;;;;;4.78;0.60;;;12.20;99.90;;;;;;5114875;27;37799;-59
2022/09/27 12:52:06;;;;;;;2.63;0.38;;;12.20;99.90;;;;;;5115216;27;37481;-59
2022/09/27 12:54:55;;;;;;;1.65;0.40;;;12.20;99.90;;;;;;5113855;27;38089;-59
2022/09/27 12:57:33;;;;;;;2.97;0.35;;;12.20;99.90;;;;;;5115113;27;37654;-59
2022/09/27 13:00:11;;;;;;;3.38;0.45;;;12.30;99.90;;;;;;5115186;27;37420;-59
2022/09/27 13:03:00;;;;;;;4.32;0.95;;;12.30;99.90;;;;;;5114480;27;36294;-59
2022/09/27 13:05:59;;;;;;;1.27;0.40;;;12.30;99.90;;;;;;5113620;27;37563;-59
2022/09/27 13:09:01;;;;;;;3.88;0.73;;;12.30;99.90;;;;;;5110904;27;38649;-58
2022/09/27 13:11:42;;;;;;;2.92;0.30;;;12.30;99.90;;;;;;5114533;27;36953;-59
2022/09/27 13:14:19;;;;;;;4.75;0.32;;;12.30;99.90;;;;;;5115169;27;35474;-59
2022/09/27 13:16:48;;;;;;;2.75;0.60;;;12.40;99.90;;;;;;5113738;27;37806;-59